Time;durP1;ratioP1;P1;durP2;ratioP2;P2;SDS_P1;SDS_P2;PMS_P1;PMS_P2;Temp;Humidity;BMP_temperature;BMP_pressure;BME280_temperature;BME280_humidity;BME280_pressure;Samples;Min_cycle;Max_cycle;Signal;HPM_P1;HPM_P2
2022/03/27 00:00:13;;;;;;;24.02;10.15;;;;;;;8.54;43.13;95973.69;5065733;28;20409;-71
2022/03/27 00:02:41;;;;;;;22.58;9.02;;;;;;;8.59;43.05;95976.16;5065610;28;20226;-71
2022/03/27 00:05:12;;;;;;;19.02;9.55;;;;;;;8.31;43.05;95975.59;5063880;28;20193;-71
2022/03/27 00:07:40;;;;;;;19.50;9.45;;;;;;;8.00;44.45;95969.97;5065527;28;21455;-71
2022/03/27 00:10:09;;;;;;;28.13;9.00;;;;;;;7.85;45.00;95965.91;5062437;28;20282;-72
2022/03/27 00:12:36;;;;;;;27.40;10.05;;;;;;;8.15;43.84;95970.69;5065081;28;20676;-72
2022/03/27 00:15:03;;;;;;;21.02;10.48;;;;;;;8.06;44.54;95967.41;5063846;28;20221;-72
2022/03/27 00:17:33;;;;;;;22.33;9.65;;;;;;;8.00;44.74;95969.97;5065347;28;20198;-70
2022/03/27 00:20:02;;;;;;;26.27;11.45;;;;;;;8.18;44.30;95963.03;5063556;28;20296;-71
2022/03/27 00:22:32;;;;;;;22.00;9.35;;;;;;;8.62;43.10;95958.41;5066398;28;20289;-71
2022/03/27 00:25:00;;;;;;;26.27;10.32;;;;;;;8.73;42.45;95959.94;5063037;28;20202;-72
2022/03/27 00:27:27;;;;;;;27.67;10.93;;;;;;;8.81;42.36;95963.22;5063424;28;20209;-71
2022/03/27 00:29:54;;;;;;;26.58;9.95;;;;;;;8.94;41.72;95958.81;5062277;28;21356;-72
2022/03/27 00:32:22;;;;;;;19.20;10.82;;;;;;;9.08;42.02;95956.13;5059696;28;20632;-71
2022/03/27 00:34:49;;;;;;;26.85;10.88;;;;;;;9.13;41.18;95956.91;5062891;28;22894;-71
2022/03/27 00:37:16;;;;;;;25.45;10.18;;;;;;;9.19;41.37;95949.19;5063657;28;20202;-71
2022/03/27 00:39:44;;;;;;;22.33;10.40;;;;;;;8.96;41.75;95959.66;5062610;28;20209;-72
2022/03/27 00:42:11;;;;;;;27.33;11.02;;;;;;;8.80;42.22;95946.34;5064199;28;20229;-71
2022/03/27 00:44:38;;;;;;;18.33;9.70;;;;;;;8.61;42.91;95942.38;5064413;28;20264;-71
2022/03/27 00:47:05;;;;;;;18.25;9.02;;;;;;;8.56;41.98;95944.09;5062933;28;20213;-71
2022/03/27 00:49:32;;;;;;;19.13;9.27;;;;;;;8.61;43.01;95944.06;5063615;28;20227;-71
2022/03/27 00:51:59;;;;;;;20.27;9.00;;;;;;;8.65;42.52;95938.94;5062204;28;20237;-71
2022/03/27 00:54:26;;;;;;;25.35;8.63;;;;;;;8.81;42.14;95937.88;5062892;28;20679;-71
2022/03/27 00:56:55;;;;;;;18.60;8.63;;;;;;;8.67;41.76;95939.72;5061215;28;20205;-72
2022/03/27 00:59:22;;;;;;;13.80;7.50;;;;;;;8.58;42.23;95939.88;5060516;28;20810;-71
2022/03/27 01:01:48;;;;;;;18.60;8.25;;;;;;;8.74;41.44;95938.81;5061762;28;20235;-71
2022/03/27 01:04:15;;;;;;;21.35;7.65;;;;;;;8.59;42.05;95933.94;5063866;28;20257;-71
2022/03/27 01:06:44;;;;;;;10.65;8.07;;;;;;;8.53;42.55;95936.53;5063857;28;20662;-71
2022/03/27 01:12:22;;;;;;;15.30;7.60;;;;;;;8.20;42.59;95925.88;4979226;28;20565;-71
2022/03/27 01:14:50;;;;;;;17.15;7.25;;;;;;;8.28;42.56;95924.97;4981869;28;20287;-72
2022/03/27 01:17:19;;;;;;;13.75;7.45;;;;;;;8.30;42.90;95919.03;5022542;28;20709;-71
2022/03/27 01:19:47;;;;;;;20.00;7.45;;;;;;;8.23;43.00;95926.72;5062638;28;20229;-72
2022/03/27 01:22:16;;;;;;;17.48;8.85;;;;;;;7.81;43.57;95933.88;5065322;28;20304;-71
2022/03/27 01:24:44;;;;;;;14.95;7.68;;;;;;;7.92;43.25;95929.53;5066034;28;20209;-71
2022/03/27 01:27:10;;;;;;;22.88;8.70;;;;;;;7.88;43.40;95932.13;5066807;28;20197;-72
2022/03/27 01:29:37;;;;;;;22.33;8.68;;;;;;;7.98;43.36;95929.50;5066328;28;20189;-71
2022/03/27 01:32:06;;;;;;;19.52;8.07;;;;;;;8.02;43.10;95938.75;5065365;28;22473;-71
2022/03/27 01:34:33;;;;;;;20.85;8.38;;;;;;;7.99;43.55;95933.69;5064214;28;20201;-71
2022/03/27 01:37:03;;;;;;;17.38;7.53;;;;;;;7.92;43.12;95927.00;5065119;28;20194;-71
2022/03/27 01:39:31;;;;;;;18.00;8.20;;;;;;;7.78;43.54;95929.69;5065996;28;20665;-71
2022/03/27 01:41:58;;;;;;;17.88;7.78;;;;;;;7.42;44.93;95932.53;5065140;28;20205;-72
2022/03/27 01:44:25;;;;;;;14.07;8.45;;;;;;;7.54;43.92;95924.81;5065284;28;20631;-71
2022/03/27 01:46:52;;;;;;;21.85;9.23;;;;;;;7.34;44.53;95930.03;5064545;28;20209;-71
2022/03/27 01:49:19;;;;;;;16.35;8.10;;;;;;;7.18;45.45;95930.97;5064243;28;20588;-71
2022/03/27 01:51:47;;;;;;;19.90;7.97;;;;;;;7.37;45.15;95926.66;5065624;28;20884;-71
2022/03/27 01:54:14;;;;;;;29.38;10.10;;;;;;;7.51;44.25;95924.84;5064301;28;20296;-72
2022/03/27 01:56:43;;;;;;;15.82;8.68;;;;;;;7.76;44.08;95922.94;5064155;28;20201;-71
2022/03/27 01:59:11;;;;;;;13.93;8.73;;;;;;;7.52;44.19;95921.47;5064988;28;20197;-71
2022/03/27 02:01:39;;;;;;;21.90;10.70;;;;;;;7.24;44.47;95925.88;5070072;28;20634;-71
2022/03/27 02:04:06;;;;;;;24.05;10.60;;;;;;;7.06;45.59;95926.03;5067346;28;20716;-71
2022/03/27 02:06:37;;;;;;;21.48;10.00;;;;;;;7.17;45.68;95929.34;5070241;28;20702;-71
2022/03/27 02:09:04;;;;;;;21.80;8.93;;;;;;;7.23;45.83;95929.25;5068352;28;20229;-71
2022/03/27 02:11:30;;;;;;;24.50;9.70;;;;;;;6.91;46.35;95928.66;5069296;28;20229;-71
2022/03/27 02:13:59;;;;;;;29.42;9.95;;;;;;;7.01;46.20;95932.78;5068596;28;20210;-71
2022/03/27 02:16:25;;;;;;;19.98;9.35;;;;;;;7.18;45.51;95927.66;5067687;28;21623;-71
2022/03/27 02:18:52;;;;;;;25.83;10.30;;;;;;;7.12;45.49;95923.47;5067998;28;20295;-71
2022/03/27 02:21:19;;;;;;;24.08;10.98;;;;;;;7.06;45.94;95931.06;5065297;28;20675;-71
2022/03/27 02:23:47;;;;;;;16.55;9.05;;;;;;;6.93;46.23;95929.47;5067609;28;20306;-71
2022/03/27 02:26:14;;;;;;;21.90;10.20;;;;;;;7.04;46.53;95927.72;5067109;28;20198;-71
2022/03/27 02:28:41;;;;;;;20.60;9.93;;;;;;;7.29;45.68;95931.75;5067512;28;20214;-71
2022/03/27 02:31:10;;;;;;;23.42;9.68;;;;;;;7.42;45.15;95940.91;5066639;28;20274;-71
2022/03/27 02:33:37;;;;;;;19.90;9.25;;;;;;;7.38;46.00;95936.75;5065894;28;20283;-72
2022/03/27 02:36:06;;;;;;;20.63;10.40;;;;;;;7.56;45.18;95934.94;5068170;28;20210;-71
2022/03/27 02:38:34;;;;;;;19.25;9.02;;;;;;;7.69;44.35;95942.41;5069871;28;20893;-71
2022/03/27 02:41:01;;;;;;;24.33;9.73;;;;;;;7.75;44.02;95939.81;5067632;28;20201;-71
2022/03/27 02:43:27;;;;;;;20.77;9.15;;;;;;;7.43;45.25;95946.81;5067490;28;21236;-71
2022/03/27 02:45:54;;;;;;;21.50;9.05;;;;;;;7.29;45.17;95948.63;5068586;28;20225;-71
2022/03/27 02:48:23;;;;;;;19.95;9.13;;;;;;;7.25;46.05;95950.31;5069123;28;20743;-71
2022/03/27 02:50:50;;;;;;;19.77;9.30;;;;;;;7.47;45.48;95959.44;5067489;28;20241;-71
2022/03/27 02:53:16;;;;;;;20.60;9.23;;;;;;;7.43;45.58;95947.66;5067046;28;20247;-71
2022/03/27 02:55:43;;;;;;;15.50;8.90;;;;;;;7.54;45.21;95955.19;5066460;28;20202;-71
2022/03/27 02:58:10;;;;;;;18.52;8.88;;;;;;;7.59;45.67;95958.53;5068280;28;20640;-71
2022/03/27 03:00:37;;;;;;;25.80;9.30;;;;;;;7.60;44.59;95954.31;5068810;28;20259;-71
2022/03/27 03:03:04;;;;;;;20.58;8.80;;;;;;;7.26;46.44;95954.53;5067688;28;20720;-71
2022/03/27 03:05:32;;;;;;;20.10;9.98;;;;;;;7.03;46.78;95959.72;5066127;28;20278;-72
2022/03/27 03:08:01;;;;;;;24.00;10.52;;;;;;;6.92;46.98;95955.59;5066498;28;20696;-71
2022/03/27 03:10:29;;;;;;;22.20;10.82;;;;;;;6.91;47.64;95964.03;5067601;28;20198;-71
2022/03/27 03:12:56;;;;;;;22.25;9.68;;;;;;;6.81;47.68;95961.53;5067235;28;21140;-71
2022/03/27 03:15:23;;;;;;;16.75;10.10;;;;;;;6.48;48.93;95957.44;5068140;28;20253;-71
2022/03/27 03:17:50;;;;;;;25.00;8.90;;;;;;;6.42;48.90;95961.69;5067272;28;20201;-71
2022/03/27 03:20:19;;;;;;;22.02;10.15;;;;;;;6.38;48.86;95960.88;5067576;28;20255;-71
2022/03/27 03:22:48;;;;;;;22.33;10.18;;;;;;;6.31;49.55;95970.97;5066634;28;20934;-71
2022/03/27 03:25:14;;;;;;;21.25;11.52;;;;;;;6.43;49.38;95973.47;5065318;28;20288;-71
2022/03/27 03:27:41;;;;;;;21.98;10.75;;;;;;;6.44;49.63;95970.06;5069090;28;20263;-71
2022/03/27 03:30:10;;;;;;;21.80;11.57;;;;;;;6.25;50.17;95964.25;5067062;28;20201;-71
2022/03/27 03:32:37;;;;;;;28.52;11.23;;;;;;;6.59;48.67;95967.53;5067512;28;20644;-71
2022/03/27 03:35:04;;;;;;;29.13;11.27;;;;;;;6.78;48.32;95964.06;5066298;28;20206;-71
2022/03/27 03:37:31;;;;;;;26.08;11.32;;;;;;;6.88;47.87;95956.47;5065906;28;20789;-71
2022/03/27 03:39:59;;;;;;;24.02;11.30;;;;;;;6.87;47.94;95962.34;5065036;28;20233;-72
2022/03/27 03:42:26;;;;;;;27.40;12.20;;;;;;;6.73;48.68;95965.75;5065680;28;20198;-71
2022/03/27 03:44:53;;;;;;;23.00;12.75;;;;;;;6.74;48.75;95959.88;5066929;28;20689;-72
2022/03/27 03:47:20;;;;;;;32.10;11.88;;;;;;;6.32;49.76;95970.13;5064239;28;20760;-72
2022/03/27 03:49:47;;;;;;;22.02;11.15;;;;;;;6.42;49.73;95965.06;5066070;28;20666;-71
2022/03/27 03:52:14;;;;;;;28.73;10.45;;;;;;;6.61;48.51;95970.03;5064615;28;20222;-71
2022/03/27 03:54:41;;;;;;;26.08;11.23;;;;;;;6.68;48.17;95967.47;5064828;28;22203;-71
2022/03/27 03:57:09;;;;;;;21.05;11.63;;;;;;;6.86;48.25;95973.31;5064975;28;20210;-72
2022/03/27 03:59:36;;;;;;;35.70;12.70;;;;;;;6.83;48.44;95974.16;5066298;28;20730;-72
2022/03/27 04:02:05;;;;;;;21.33;11.20;;;;;;;6.83;48.18;95969.94;5066801;28;20302;-71
2022/03/27 04:04:34;;;;;;;26.15;12.45;;;;;;;6.75;48.43;95976.72;5068013;28;20198;-72
2022/03/27 04:07:01;;;;;;;24.90;11.15;;;;;;;6.75;48.70;95984.28;5063054;28;20204;-71
2022/03/27 04:09:28;;;;;;;26.48;11.95;;;;;;;6.44;49.46;95980.19;5066199;28;20294;-71
2022/03/27 04:11:55;;;;;;;23.52;10.52;;;;;;;6.54;48.95;95986.91;5064944;28;20237;-71
2022/03/27 04:14:23;;;;;;;23.77;10.40;;;;;;;6.64;48.37;95983.50;5064502;28;20634;-71
2022/03/27 04:16:50;;;;;;;28.20;11.48;;;;;;;6.52;48.85;95991.09;5065357;28;20299;-71
2022/03/27 04:19:17;;;;;;;21.48;10.50;;;;;;;6.59;49.25;95990.25;5066091;28;20302;-71
2022/03/27 04:21:44;;;;;;;23.25;10.68;;;;;;;6.58;48.61;95990.25;5063801;28;20233;-71
2022/03/27 04:24:11;;;;;;;16.35;9.82;;;;;;;6.27;49.81;95997.06;5066087;28;20202;-71
2022/03/27 04:26:39;;;;;;;22.80;10.25;;;;;;;6.12;49.86;96001.31;5066595;28;20214;-71
2022/03/27 04:29:06;;;;;;;20.08;9.93;;;;;;;6.26;50.03;96000.44;5067217;28;20208;-71
2022/03/27 04:31:34;;;;;;;28.83;11.02;;;;;;;6.58;49.04;95991.09;5066456;28;20233;-72
2022/03/27 04:34:00;;;;;;;29.17;13.48;;;;;;;6.77;49.39;96000.28;5065403;28;20236;-71
2022/03/27 04:36:27;;;;;;;29.40;12.85;;;;;;;6.77;48.33;96005.34;5065861;28;20271;-71
2022/03/27 04:38:55;;;;;;;33.28;18.05;;;;;;;6.92;48.56;96006.13;5066042;28;20688;-71
2022/03/27 04:41:22;;;;;;;33.42;13.80;;;;;;;6.96;48.01;96012.84;5067504;28;20190;-71
2022/03/27 04:43:49;;;;;;;30.58;13.23;;;;;;;6.66;49.13;96017.19;5066463;28;20854;-71
2022/03/27 04:46:16;;;;;;;29.25;12.45;;;;;;;6.92;48.32;96014.56;5066679;28;20212;-72
2022/03/27 04:48:45;;;;;;;36.05;13.45;;;;;;;6.93;47.96;96015.41;5065456;28;21089;-71
2022/03/27 04:51:12;;;;;;;28.63;13.15;;;;;;;7.76;46.86;96024.16;5065444;28;20293;-71
2022/03/27 04:53:39;;;;;;;32.78;13.43;;;;;;;8.34;45.75;96024.56;5065430;28;20645;-71
2022/03/27 04:56:06;;;;;;;27.20;12.15;;;;;;;8.89;44.55;96020.59;5067640;28;20685;-72
2022/03/27 04:58:33;;;;;;;25.58;12.43;;;;;;;9.69;43.44;96031.34;5065703;28;20542;-71
2022/03/27 05:01:00;;;;;;;28.50;12.50;;;;;;;10.08;42.19;96035.84;5067002;28;20684;-72
2022/03/27 05:03:27;;;;;;;26.58;14.00;;;;;;;10.77;40.32;96022.78;5066226;28;20699;-73
2022/03/27 05:05:55;;;;;;;28.17;14.30;;;;;;;11.37;39.34;96024.97;5065639;28;20201;-70
2022/03/27 05:08:22;;;;;;;34.47;15.55;;;;;;;11.96;38.22;96022.81;5067511;28;20266;-72
2022/03/27 05:10:49;;;;;;;30.30;14.25;;;;;;;12.11;37.86;96032.66;5066186;28;20210;-72
2022/03/27 05:13:17;;;;;;;32.15;13.57;;;;;;;12.18;37.27;96030.78;5065941;28;20694;-71
2022/03/27 05:15:44;;;;;;;53.65;25.20;;;;;;;12.44;37.08;96035.22;5065001;28;20643;-71
2022/03/27 05:18:11;;;;;;;60.88;29.92;;;;;;;12.93;36.45;96032.22;5065356;28;20225;-73
2022/03/27 05:20:40;;;;;;;53.28;24.40;;;;;;;12.74;36.64;96042.09;5066781;28;20630;-71
2022/03/27 05:23:09;;;;;;;46.00;17.70;;;;;;;13.68;35.60;96033.50;5066174;28;20761;-71
2022/03/27 05:25:40;;;;;;;82.38;37.42;;;;;;;15.16;32.57;96031.16;5065261;28;20251;-71
2022/03/27 05:28:09;;;;;;;50.33;23.85;;;;;;;16.05;30.90;96029.50;5065283;28;20208;-72
2022/03/27 05:30:36;;;;;;;26.75;14.23;;;;;;;17.09;29.85;96025.19;5062755;28;20193;-71
2022/03/27 05:33:04;;;;;;;33.10;12.88;;;;;;;17.90;28.53;96027.50;5065116;28;20241;-72
2022/03/27 05:35:31;;;;;;;20.83;11.35;;;;;;;18.15;28.05;96028.00;5065478;28;20210;-71
2022/03/27 05:37:59;;;;;;;18.27;11.40;;;;;;;19.17;26.49;96027.25;5065287;28;20665;-71
2022/03/27 05:40:27;;;;;;;19.52;12.70;;;;;;;19.54;25.72;96036.50;5064795;28;20305;-71
2022/03/27 05:42:54;;;;;;;26.42;12.55;;;;;;;20.77;24.10;96032.16;5061575;28;20210;-72
2022/03/27 05:45:23;;;;;;;19.35;11.95;;;;;;;21.11;24.12;96025.00;5063536;28;20703;-72
2022/03/27 05:47:50;;;;;;;26.65;14.80;;;;;;;21.29;23.66;96026.50;5064442;28;20200;-71
2022/03/27 05:50:22;;;;;;;23.55;14.32;;;;;;;22.51;22.33;96026.59;5061931;28;20194;-71
2022/03/27 05:52:49;;;;;;;29.63;13.10;;;;;;;22.82;21.71;96028.84;5063609;28;20237;-72
2022/03/27 05:55:16;;;;;;;27.27;15.50;;;;;;;23.60;21.05;96036.50;5062748;28;20198;-71
2022/03/27 05:57:45;;;;;;;29.98;17.15;;;;;;;22.80;21.93;96029.88;5063382;28;20665;-71
2022/03/27 06:00:15;;;;;;;24.77;15.45;;;;;;;24.30;20.54;96028.94;5064416;28;20671;-71
2022/03/27 06:02:43;;;;;;;27.05;17.75;;;;;;;23.96;20.29;96036.53;5063491;28;20236;-71
2022/03/27 06:05:10;;;;;;;24.35;15.68;;;;;;;23.72;20.76;96038.28;5062458;28;20697;-72
2022/03/27 06:07:44;;;;;;;25.38;15.15;;;;;;;24.32;20.08;96030.47;5063507;28;20205;-71
2022/03/27 06:10:11;;;;;;;26.13;13.45;;;;;;;23.40;20.96;96043.06;5064192;28;20201;-70
2022/03/27 06:12:39;;;;;;;21.20;13.95;;;;;;;24.24;20.38;96050.16;5064006;28;20342;-73
2022/03/27 06:15:09;;;;;;;32.78;18.23;;;;;;;24.44;20.15;96040.94;5063102;28;20225;-72
2022/03/27 06:17:40;;;;;;;25.13;16.95;;;;;;;25.42;19.39;96041.28;5062902;28;20208;-72
2022/03/27 06:20:08;;;;;;;30.08;15.20;;;;;;;26.39;18.42;96040.59;5066330;28;20197;-73
2022/03/27 06:22:35;;;;;;;33.03;20.05;;;;;;;26.75;18.28;96035.91;5066056;28;20242;-73
2022/03/27 06:25:02;;;;;;;39.88;17.70;;;;;;;26.33;18.70;96033.25;5068676;28;20228;-73
2022/03/27 06:27:29;;;;;;;31.25;16.08;;;;;;;26.13;18.02;96036.63;5066746;28;20247;-72
2022/03/27 06:29:56;;;;;;;32.28;16.80;;;;;;;26.34;18.43;96027.09;5064510;28;20209;-72
2022/03/27 06:32:26;;;;;;;26.52;14.98;;;;;;;26.73;17.97;96035.22;5063902;28;20260;-74
2022/03/27 06:34:57;;;;;;;28.58;16.75;;;;;;;27.31;17.72;96027.78;5063472;28;20208;-72
2022/03/27 06:37:24;;;;;;;33.83;17.20;;;;;;;28.02;16.74;96025.97;5066755;28;20193;-72
2022/03/27 06:39:51;;;;;;;40.25;21.42;;;;;;;26.69;18.24;96033.84;5065187;28;20757;-72
2022/03/27 06:42:18;;;;;;;29.08;16.83;;;;;;;27.77;17.48;96035.97;5062945;28;21312;-72
2022/03/27 06:44:45;;;;;;;79.28;41.45;;;;;;;26.38;18.73;96032.91;5064218;28;20205;-71
2022/03/27 06:47:13;;;;;;;26.70;19.00;;;;;;;27.75;17.42;96040.47;5063338;28;20210;-72
2022/03/27 06:49:41;;;;;;;27.08;18.35;;;;;;;28.99;16.49;96032.91;5067751;28;20263;-71
2022/03/27 06:52:08;;;;;;;26.45;15.77;;;;;;;28.18;16.84;96044.59;5068179;28;20599;-72
2022/03/27 06:54:35;;;;;;;26.25;15.02;;;;;;;26.93;18.04;96042.25;5067419;28;20194;-72
2022/03/27 06:57:03;;;;;;;27.98;15.40;;;;;;;27.82;17.19;96039.97;5066323;28;20266;-72
2022/03/27 07:03:01;;;;;;;22.88;13.93;;;;;;;28.82;16.91;96045.91;5065078;28;20205;-72
2022/03/27 07:05:04;;;;;;;19.85;14.13;;;;;;;29.95;15.68;96037.00;5066591;28;20281;-72
2022/03/27 07:07:31;;;;;;;24.73;15.45;;;;;;;30.75;14.74;96045.88;5067751;28;20209;-71
2022/03/27 07:09:58;;;;;;;24.42;14.20;;;;;;;30.92;14.71;96036.34;5065189;28;20198;-71
2022/03/27 07:12:25;;;;;;;27.23;17.00;;;;;;;29.78;15.31;96045.66;5065716;28;20268;-72
2022/03/27 07:14:52;;;;;;;26.98;16.10;;;;;;;29.49;16.19;96040.53;5064597;28;20716;-71
2022/03/27 07:17:19;;;;;;;42.55;26.85;;;;;;;29.36;16.36;96045.25;5068196;28;20202;-73
2022/03/27 07:19:46;;;;;;;30.30;17.92;;;;;;;31.33;14.92;96040.09;5066921;28;20274;-72
2022/03/27 07:22:15;;;;;;;33.28;16.58;;;;;;;31.57;14.81;96045.47;5067676;28;20233;-70
2022/03/27 07:24:42;;;;;;;27.38;16.85;;;;;;;30.95;15.06;96044.72;5067265;28;20221;-72
2022/03/27 07:27:09;;;;;;;27.15;15.13;;;;;;;31.23;14.95;96037.56;5067734;28;20202;-72
2022/03/27 07:29:37;;;;;;;25.27;17.83;;;;;;;30.60;15.44;96036.91;5066372;28;20206;-71
2022/03/27 07:32:05;;;;;;;25.13;15.98;;;;;;;31.10;14.63;96035.34;5066509;28;20243;-71
2022/03/27 07:34:33;;;;;;;25.88;15.40;;;;;;;30.90;15.42;96022.56;5067178;28;20229;-73
2022/03/27 07:36:59;;;;;;;29.05;13.20;;;;;;;30.68;15.33;96022.06;5067220;28;20308;-73
2022/03/27 07:39:28;;;;;;;18.30;12.68;;;;;;;30.09;15.72;96022.63;5067702;28;20209;-72
2022/03/27 07:41:54;;;;;;;20.83;13.45;;;;;;;30.66;16.01;96015.31;5065822;28;20233;-72
2022/03/27 07:44:21;;;;;;;21.95;12.60;;;;;;;31.47;14.86;96013.25;5067142;28;20564;-71
2022/03/27 07:46:49;;;;;;;20.58;12.82;;;;;;;30.85;15.78;96017.75;5065725;28;20286;-71
2022/03/27 07:49:16;;;;;;;20.73;11.50;;;;;;;31.32;15.50;96012.19;5067058;28;20206;-72
2022/03/27 07:51:43;;;;;;;15.55;10.30;;;;;;;31.62;14.97;96016.13;5065744;28;20210;-73
2022/03/27 07:54:10;;;;;;;18.75;12.75;;;;;;;31.03;15.58;96009.84;5066685;28;20229;-71
2022/03/27 07:56:39;;;;;;;22.55;12.75;;;;;;;31.06;15.18;96015.59;5065678;28;20194;-71
2022/03/27 07:59:05;;;;;;;14.27;10.80;;;;;;;30.28;16.04;96001.50;5065681;28;20301;-71
2022/03/27 08:01:32;;;;;;;15.27;9.63;;;;;;;31.47;14.63;96005.34;5065723;28;20221;-71
2022/03/27 08:04:00;;;;;;;13.20;10.07;;;;;;;31.22;15.06;96006.19;5066912;28;20294;-71
2022/03/27 08:06:29;;;;;;;16.33;8.88;;;;;;;28.72;16.90;96014.47;5066427;28;20209;-72
2022/03/27 08:08:56;;;;;;;11.35;8.82;;;;;;;28.84;16.74;96008.16;5066333;28;20201;-72
2022/03/27 08:11:23;;;;;;;12.25;9.13;;;;;;;27.50;17.55;96003.53;5066309;28;20289;-71
2022/03/27 08:13:51;;;;;;;10.80;9.10;;;;;;;27.05;17.86;96007.31;5066037;28;20229;-71
2022/03/27 08:16:18;;;;;;;12.18;8.93;;;;;;;25.79;17.98;96011.59;5065989;28;20292;-72
2022/03/27 08:18:45;;;;;;;13.00;8.70;;;;;;;25.15;18.55;96006.97;5064824;28;20202;-72
2022/03/27 08:21:12;;;;;;;11.20;8.70;;;;;;;24.88;19.17;96004.66;5064551;28;20328;-72
2022/03/27 08:23:39;;;;;;;14.23;7.93;;;;;;;23.80;19.99;96003.97;5065315;28;20194;-70
2022/03/27 08:28:52;;;;;;;14.48;10.15;;;;;;;24.22;19.53;96000.06;5064471;28;20329;-70
2022/03/27 08:31:18;;;;;;;14.63;10.35;;;;;;;23.59;19.56;95994.16;5066046;28;20198;-70
2022/03/27 08:33:46;;;;;;;16.02;9.20;;;;;;;22.81;20.44;95996.06;5064449;28;20743;-72
2022/03/27 08:36:13;;;;;;;16.63;9.88;;;;;;;22.57;20.81;95989.91;5065500;28;20297;-72
2022/03/27 08:38:40;;;;;;;11.30;9.27;;;;;;;22.14;21.29;95981.53;5065174;28;20210;-71
2022/03/27 08:41:07;;;;;;;18.35;10.35;;;;;;;21.69;22.31;96001.63;5065757;28;20202;-70
2022/03/27 08:43:34;;;;;;;16.05;10.00;;;;;;;21.99;21.46;95981.56;5064948;28;20708;-70
2022/03/27 08:46:04;;;;;;;12.68;10.18;;;;;;;22.17;21.42;95981.34;5064771;28;20204;-72
2022/03/27 08:48:33;;;;;;;26.83;12.63;;;;;;;21.96;20.96;95980.94;5064057;28;20193;-71
2022/03/27 08:51:07;;;;;;;22.65;11.90;;;;;;;22.08;21.31;95980.16;5064539;28;20708;-72
2022/03/27 08:53:42;;;;;;;24.85;14.50;;;;;;;21.98;21.97;95981.66;5065416;28;20236;-72
2022/03/27 08:56:08;;;;;;;19.40;11.15;;;;;;;21.10;21.52;95997.47;5063034;28;20642;-71
2022/03/27 08:58:37;;;;;;;18.17;11.85;;;;;;;20.70;21.99;95987.78;5063122;28;20282;-70
2022/03/27 09:01:06;;;;;;;18.45;11.90;;;;;;;20.92;22.04;95984.75;5063276;28;20201;-71
2022/03/27 09:03:33;;;;;;;16.70;11.23;;;;;;;20.99;21.85;95991.22;5063621;28;20225;-72
2022/03/27 09:06:01;;;;;;;24.83;12.95;;;;;;;20.61;22.46;95985.72;5063617;28;20916;-71
2022/03/27 09:08:29;;;;;;;17.55;11.98;;;;;;;20.46;22.51;95990.97;5062663;28;20511;-71
2022/03/27 09:10:57;;;;;;;21.40;12.77;;;;;;;20.42;22.35;96000.63;5064088;28;20588;-71
2022/03/27 09:13:24;;;;;;;19.45;10.98;;;;;;;20.39;22.52;95980.13;5063300;28;20226;-71
2022/03/27 09:16:00;;;;;;;16.80;11.18;;;;;;;20.81;21.90;95987.13;5063547;28;20681;-72
2022/03/27 09:18:42;;;;;;;22.58;12.43;;;;;;;20.68;22.24;95996.53;5063087;28;20319;-72
2022/03/27 09:21:09;;;;;;;19.23;12.85;;;;;;;20.11;22.36;95986.00;5063350;28;20266;-71
2022/03/27 09:23:37;;;;;;;22.75;13.50;;;;;;;20.27;22.72;95983.41;5063353;28;20882;-71
2022/03/27 09:26:06;;;;;;;26.45;12.65;;;;;;;20.36;22.20;95982.88;5064707;28;20206;-71
2022/03/27 09:28:36;;;;;;;23.13;12.63;;;;;;;20.33;21.89;95981.28;5065253;28;21480;-71
2022/03/27 09:31:05;;;;;;;17.55;12.27;;;;;;;20.51;21.94;95969.13;5064880;28;20197;-71
2022/03/27 09:33:46;;;;;;;25.42;12.85;;;;;;;20.47;21.84;95972.78;5065193;28;20226;-70
2022/03/27 09:36:14;;;;;;;15.57;12.25;;;;;;;20.44;22.24;95967.81;5065441;28;20220;-72
2022/03/27 09:38:41;;;;;;;19.63;12.60;;;;;;;20.63;22.50;95959.81;5064407;28;20665;-72
2022/03/27 09:41:28;;;;;;;16.10;10.98;;;;;;;20.67;22.23;95969.03;5063544;28;20282;-71
2022/03/27 09:44:00;;;;;;;22.63;12.40;;;;;;;20.73;21.93;95971.28;5064154;28;20217;-71
2022/03/27 09:46:27;;;;;;;16.30;11.85;;;;;;;20.31;21.81;95977.13;5063382;28;20205;-72
2022/03/27 09:48:58;;;;;;;18.30;11.55;;;;;;;20.34;21.82;95961.47;5065007;28;20197;-71
2022/03/27 09:51:25;;;;;;;16.27;11.88;;;;;;;20.14;21.95;95967.78;5064532;28;20186;-71
2022/03/27 09:53:59;;;;;;;20.58;11.35;;;;;;;20.15;21.64;95966.84;5066098;28;20221;-71
2022/03/27 09:56:30;;;;;;;20.83;11.63;;;;;;;20.19;21.70;95952.88;5064337;28;20202;-71
2022/03/27 09:58:57;;;;;;;16.75;10.98;;;;;;;20.07;21.33;95953.56;5063739;28;20202;-71
2022/03/27 10:01:25;;;;;;;18.45;10.73;;;;;;;20.19;21.03;95963.19;5063482;28;20288;-70
2022/03/27 10:04:01;;;;;;;18.25;10.45;;;;;;;20.22;21.24;95944.94;5063437;28;20234;-71
2022/03/27 10:06:30;;;;;;;20.15;10.77;;;;;;;20.29;21.27;95943.66;5065202;28;20228;-71
2022/03/27 10:08:57;;;;;;;16.67;10.35;;;;;;;20.41;21.30;95941.31;5064163;28;20296;-70
2022/03/27 10:11:25;;;;;;;14.10;9.73;;;;;;;20.28;21.11;95936.88;5064379;28;20279;-71
2022/03/27 10:13:53;;;;;;;14.25;9.93;;;;;;;20.37;20.87;95944.09;5062155;28;20282;-71
2022/03/27 10:16:28;;;;;;;11.55;9.50;;;;;;;20.30;20.90;95929.00;5064658;28;20583;-72
2022/03/27 10:18:56;;;;;;;18.17;10.82;;;;;;;20.20;21.33;95926.13;5064899;28;20200;-71
2022/03/27 10:21:26;;;;;;;14.45;10.50;;;;;;;20.42;20.74;95918.00;5064648;28;20233;-71
2022/03/27 10:24:01;;;;;;;14.80;10.68;;;;;;;20.36;20.62;95924.31;5067297;28;20262;-71
2022/03/27 10:26:30;;;;;;;16.85;10.23;;;;;;;20.58;20.52;95928.25;5069384;28;20244;-71
2022/03/27 10:28:59;;;;;;;15.23;9.07;;;;;;;20.57;20.25;95916.25;5067328;28;20224;-71
2022/03/27 10:31:27;;;;;;;11.75;8.93;;;;;;;20.56;20.32;95924.91;5067729;28;20201;-71
2022/03/27 10:33:58;;;;;;;9.50;7.93;;;;;;;20.73;20.21;95922.19;5067431;28;20244;-71
2022/03/27 10:36:34;;;;;;;20.13;8.60;;;;;;;20.78;19.88;95912.41;5066949;28;20198;-72
2022/03/27 10:39:10;;;;;;;12.18;8.23;;;;;;;20.99;19.81;95913.69;5067782;28;20274;-72
2022/03/27 10:41:44;;;;;;;17.10;9.23;;;;;;;21.08;19.55;95906.28;5067476;28;20208;-72
2022/03/27 10:44:20;;;;;;;12.15;9.43;;;;;;;20.99;19.20;95913.69;5067299;28;20677;-71
2022/03/27 10:47:13;;;;;;;22.63;8.88;;;;;;;20.55;19.57;95913.75;5066815;28;21509;-71
2022/03/27 10:49:41;;;;;;;9.70;8.00;;;;;;;20.50;19.92;95905.47;5064982;28;20232;-71
2022/03/27 10:52:10;;;;;;;10.88;8.43;;;;;;;20.48;20.10;95911.66;5065244;28;20635;-70
2022/03/27 10:55:00;;;;;;;17.77;9.38;;;;;;;20.61;19.80;95899.66;5065938;28;20225;-71
2022/03/27 10:57:31;;;;;;;11.40;8.43;;;;;;;20.59;19.87;95909.25;5066007;28;20226;-71
2022/03/27 10:59:59;;;;;;;12.30;8.82;;;;;;;20.74;20.05;95898.03;5066789;28;20787;-71
2022/03/27 11:02:46;;;;;;;10.75;7.75;;;;;;;21.01;19.79;95888.59;5065240;28;20796;-73
2022/03/27 11:05:50;;;;;;;10.68;8.35;;;;;;;20.88;19.28;95890.25;5064489;28;20206;-70
2022/03/27 11:08:50;;;;;;;9.38;8.38;;;;;;;20.91;19.40;95896.97;5065250;28;20258;-70
2022/03/27 11:12:02;;;;;;;12.98;8.40;;;;;;;20.72;18.88;95884.38;5066450;28;20699;-71
2022/03/27 11:15:05;;;;;;;10.65;7.38;;;;;;;20.54;19.01;95881.09;5028485;28;20486;-71
2022/03/27 11:17:49;;;;;;;19.20;9.20;;;;;;;20.42;19.29;95868.13;5066141;28;20217;-71
2022/03/27 11:20:52;;;;;;;12.10;8.38;;;;;;;20.59;19.30;95884.25;5064790;28;20223;-71
2022/03/27 11:23:30;;;;;;;23.38;12.40;;;;;;;20.45;19.69;95883.44;5067015;28;20244;-70
2022/03/27 11:25:59;;;;;;;16.23;11.10;;;;;;;20.47;20.01;95876.44;5067478;28;20682;-71
2022/03/27 11:28:43;;;;;;;19.50;12.55;;;;;;;20.40;20.14;95864.78;5065903;28;20202;-71
2022/03/27 11:31:23;;;;;;;25.75;13.63;;;;;;;20.51;20.85;95868.41;5065775;28;21742;-70
2022/03/27 11:34:19;;;;;;;23.83;14.10;;;;;;;20.45;20.19;95862.78;5067331;28;20222;-71
2022/03/27 11:37:14;;;;;;;23.88;14.57;;;;;;;20.48;20.07;95862.59;5066337;28;20205;-71
2022/03/27 11:39:41;;;;;;;18.42;13.02;;;;;;;20.71;20.04;95854.28;5056360;28;20212;-72
2022/03/27 11:42:34;;;;;;;19.10;11.98;;;;;;;20.69;20.11;95843.22;5066475;28;20259;-71